Ellenton, Georgia
Current Conditions -  °F | °C
As of 10:55 AM on Saturday 25 Oct 2014 (Local Time) from KMGR Reporting Station
Clear Clear  
Wind Chill: 66°   Ceiling: Unl
Heat Index: 66°   Visibility: 10mi
Dew Point: 50°   Wind: 3mph
Humidity: 56%   Direction: 360°N
Pressure: 30.07"   Gusts: NA
Location:  31.18°N, 83.59°W
Report Text: KMGR 251455Z AUTO 36003KT 10SM CLR 19/10 A3007 RMK AO2
Loading
Personal Weather Stations






























Interactive Weather Map
Tropical Storm Tracking
New forecast layout! Learn more

10-Day Weather Forecast

Advertisements
Track Severe Weather on mobile